sensor_id;sensor_type;location;lat;lon;timestamp;temperature;humidity
8557;DHT22;4316;53.840;10.762;2024-02-26T00:02:00;3.80;1.00
8557;DHT22;4316;53.840;10.762;2024-02-26T00:04:26;3.90;2.10
8557;DHT22;4316;53.840;10.762;2024-02-26T00:06:52;3.90;4.30
8557;DHT22;4316;53.840;10.762;2024-02-26T00:09:19;3.80;1.70
8557;DHT22;4316;53.840;10.762;2024-02-26T00:11:45;3.80;3.10
8557;DHT22;4316;53.840;10.762;2024-02-26T00:14:11;3.80;3.40
8557;DHT22;4316;53.840;10.762;2024-02-26T00:16:40;3.80;1.50
8557;DHT22;4316;53.840;10.762;2024-02-26T00:19:06;3.70;1.60
8557;DHT22;4316;53.840;10.762;2024-02-26T00:21:32;3.80;2.30
8557;DHT22;4316;53.840;10.762;2024-02-26T00:23:58;3.80;1.90
8557;DHT22;4316;53.840;10.762;2024-02-26T00:26:23;3.50;1.00
8557;DHT22;4316;53.840;10.762;2024-02-26T00:28:49;3.50;2.40
8557;DHT22;4316;53.840;10.762;2024-02-26T00:31:15;3.50;1.00
8557;DHT22;4316;53.840;10.762;2024-02-26T00:33:41;3.50;4.60
8557;DHT22;4316;53.840;10.762;2024-02-26T00:36:07;3.60;7.50
8557;DHT22;4316;53.840;10.762;2024-02-26T00:38:33;3.60;6.00
8557;DHT22;4316;53.840;10.762;2024-02-26T00:40:59;3.60;7.20
8557;DHT22;4316;53.840;10.762;2024-02-26T00:43:25;3.70;5.80
8557;DHT22;4316;53.840;10.762;2024-02-26T00:45:51;3.70;6.90
8557;DHT22;4316;53.840;10.762;2024-02-26T00:48:18;3.70;6.70
8557;DHT22;4316;53.840;10.762;2024-02-26T00:50:43;3.70;7.20
8557;DHT22;4316;53.840;10.762;2024-02-26T00:53:09;3.70;8.50
8557;DHT22;4316;53.840;10.762;2024-02-26T00:55:35;3.70;6.80
8557;DHT22;4316;53.840;10.762;2024-02-26T00:58:01;3.70;6.50
8557;DHT22;4316;53.840;10.762;2024-02-26T01:00:27;3.60;4.00
8557;DHT22;4316;53.840;10.762;2024-02-26T01:02:52;3.60;7.10
8557;DHT22;4316;53.840;10.762;2024-02-26T01:05:18;3.60;9.30
8557;DHT22;4316;53.840;10.762;2024-02-26T01:07:44;3.60;7.90
8557;DHT22;4316;53.840;10.762;2024-02-26T01:10:10;3.60;8.20
8557;DHT22;4316;53.840;10.762;2024-02-26T01:12:35;3.60;6.80
8557;DHT22;4316;53.840;10.762;2024-02-26T01:15:02;3.60;6.40
8557;DHT22;4316;53.840;10.762;2024-02-26T01:17:31;3.60;6.50
8557;DHT22;4316;53.840;10.762;2024-02-26T01:19:56;3.50;6.20
8557;DHT22;4316;53.840;10.762;2024-02-26T01:22:22;3.50;3.70
8557;DHT22;4316;53.840;10.762;2024-02-26T01:24:48;3.50;5.20
8557;DHT22;4316;53.840;10.762;2024-02-26T01:27:14;3.40;5.30
8557;DHT22;4316;53.840;10.762;2024-02-26T01:29:41;3.40;6.10
8557;DHT22;4316;53.840;10.762;2024-02-26T01:32:07;3.40;5.40
8557;DHT22;4316;53.840;10.762;2024-02-26T01:34:33;3.30;5.90
8557;DHT22;4316;53.840;10.762;2024-02-26T01:36:59;3.30;5.50
8557;DHT22;4316;53.840;10.762;2024-02-26T01:39:26;3.30;3.80
8557;DHT22;4316;53.840;10.762;2024-02-26T01:41:53;3.30;3.30
8557;DHT22;4316;53.840;10.762;2024-02-26T01:44:19;3.30;2.80
8557;DHT22;4316;53.840;10.762;2024-02-26T01:46:45;3.30;2.40
8557;DHT22;4316;53.840;10.762;2024-02-26T01:49:11;3.20;1.60
8557;DHT22;4316;53.840;10.762;2024-02-26T01:51:39;3.20;1.40
8557;DHT22;4316;53.840;10.762;2024-02-26T01:54:08;3.20;2.00
8557;DHT22;4316;53.840;10.762;2024-02-26T01:56:35;3.20;1.00
8557;DHT22;4316;53.840;10.762;2024-02-26T01:59:02;3.10;1.00
8557;DHT22;4316;53.840;10.762;2024-02-26T02:01:30;3.10;1.00
8557;DHT22;4316;53.840;10.762;2024-02-26T02:03:58;3.10;1.00
8557;DHT22;4316;53.840;10.762;2024-02-26T02:06:24;3.00;1.00
8557;DHT22;4316;53.840;10.762;2024-02-26T02:08:50;2.90;1.00
8557;DHT22;4316;53.840;10.762;2024-02-26T02:11:17;3.00;1.00
8557;DHT22;4316;53.840;10.762;2024-02-26T02:13:42;2.90;1.00
8557;DHT22;4316;53.840;10.762;2024-02-26T02:16:08;2.90;1.00
8557;DHT22;4316;53.840;10.762;2024-02-26T02:18:34;2.80;1.00
8557;DHT22;4316;53.840;10.762;2024-02-26T02:21:01;2.80;1.00
8557;DHT22;4316;53.840;10.762;2024-02-26T02:23:27;2.80;1.00
8557;DHT22;4316;53.840;10.762;2024-02-26T02:25:53;2.80;1.00
8557;DHT22;4316;53.840;10.762;2024-02-26T02:28:19;2.70;1.00
8557;DHT22;4316;53.840;10.762;2024-02-26T02:30:45;2.70;1.00
8557;DHT22;4316;53.840;10.762;2024-02-26T02:33:11;2.70;1.00
8557;DHT22;4316;53.840;10.762;2024-02-26T02:35:37;2.60;1.00
8557;DHT22;4316;53.840;10.762;2024-02-26T02:38:03;2.70;1.00
8557;DHT22;4316;53.840;10.762;2024-02-26T02:40:29;2.60;1.00
8557;DHT22;4316;53.840;10.762;2024-02-26T02:42:55;2.60;1.00
8557;DHT22;4316;53.840;10.762;2024-02-26T02:45:21;2.60;1.00
8557;DHT22;4316;53.840;10.762;2024-02-26T02:47:47;2.60;1.00
8557;DHT22;4316;53.840;10.762;2024-02-26T02:50:13;2.60;1.00
8557;DHT22;4316;53.840;10.762;2024-02-26T02:52:38;2.50;1.00
8557;DHT22;4316;53.840;10.762;2024-02-26T02:55:05;2.50;1.00
8557;DHT22;4316;53.840;10.762;2024-02-26T02:57:31;2.50;1.00
8557;DHT22;4316;53.840;10.762;2024-02-26T02:59:59;2.50;1.00
8557;DHT22;4316;53.840;10.762;2024-02-26T03:02:24;2.50;1.00
8557;DHT22;4316;53.840;10.762;2024-02-26T03:04:50;2.50;1.00
8557;DHT22;4316;53.840;10.762;2024-02-26T03:07:16;2.40;1.00
8557;DHT22;4316;53.840;10.762;2024-02-26T03:09:42;2.40;1.00
8557;DHT22;4316;53.840;10.762;2024-02-26T03:12:09;2.40;1.00
8557;DHT22;4316;53.840;10.762;2024-02-26T03:14:35;2.40;1.00
8557;DHT22;4316;53.840;10.762;2024-02-26T03:17:00;2.30;1.00
8557;DHT22;4316;53.840;10.762;2024-02-26T03:19:26;2.30;1.00
8557;DHT22;4316;53.840;10.762;2024-02-26T03:21:52;2.30;1.00
8557;DHT22;4316;53.840;10.762;2024-02-26T03:24:18;2.30;1.00
8557;DHT22;4316;53.840;10.762;2024-02-26T03:26:44;2.30;1.00
8557;DHT22;4316;53.840;10.762;2024-02-26T03:29:09;2.20;1.00
8557;DHT22;4316;53.840;10.762;2024-02-26T03:31:36;2.20;1.00
8557;DHT22;4316;53.840;10.762;2024-02-26T03:34:01;2.20;1.00
8557;DHT22;4316;53.840;10.762;2024-02-26T03:36:27;2.20;1.00
8557;DHT22;4316;53.840;10.762;2024-02-26T03:38:53;2.20;1.00
8557;DHT22;4316;53.840;10.762;2024-02-26T03:41:19;2.20;1.00
8557;DHT22;4316;53.840;10.762;2024-02-26T03:43:45;2.10;1.00
8557;DHT22;4316;53.840;10.762;2024-02-26T03:46:11;2.00;1.00
8557;DHT22;4316;53.840;10.762;2024-02-26T03:48:40;2.00;1.00
8557;DHT22;4316;53.840;10.762;2024-02-26T03:51:06;2.00;1.00
8557;DHT22;4316;53.840;10.762;2024-02-26T03:53:33;2.00;1.00
8557;DHT22;4316;53.840;10.762;2024-02-26T03:56:03;2.00;1.00
8557;DHT22;4316;53.840;10.762;2024-02-26T03:58:29;2.00;1.00
8557;DHT22;4316;53.840;10.762;2024-02-26T04:00:55;2.00;1.00
8557;DHT22;4316;53.840;10.762;2024-02-26T04:03:21;2.00;1.00
8557;DHT22;4316;53.840;10.762;2024-02-26T04:05:47;1.90;1.00
8557;DHT22;4316;53.840;10.762;2024-02-26T04:08:13;1.90;1.00
8557;DHT22;4316;53.840;10.762;2024-02-26T04:10:39;1.90;1.00
8557;DHT22;4316;53.840;10.762;2024-02-26T04:13:07;1.90;1.00
8557;DHT22;4316;53.840;10.762;2024-02-26T04:15:33;1.90;1.00
8557;DHT22;4316;53.840;10.762;2024-02-26T04:17:59;1.90;1.00
8557;DHT22;4316;53.840;10.762;2024-02-26T04:20:25;1.80;1.00
8557;DHT22;4316;53.840;10.762;2024-02-26T04:22:50;1.90;1.00
8557;DHT22;4316;53.840;10.762;2024-02-26T04:25:16;1.80;1.00
8557;DHT22;4316;53.840;10.762;2024-02-26T04:27:42;1.80;1.00
8557;DHT22;4316;53.840;10.762;2024-02-26T04:30:08;1.80;1.00
8557;DHT22;4316;53.840;10.762;2024-02-26T04:32:34;1.80;1.00
8557;DHT22;4316;53.840;10.762;2024-02-26T04:35:03;1.70;1.00
8557;DHT22;4316;53.840;10.762;2024-02-26T04:37:29;1.70;1.00
8557;DHT22;4316;53.840;10.762;2024-02-26T04:40:00;1.70;1.00
8557;DHT22;4316;53.840;10.762;2024-02-26T04:42:27;1.70;1.00
8557;DHT22;4316;53.840;10.762;2024-02-26T04:44:54;1.70;1.00
8557;DHT22;4316;53.840;10.762;2024-02-26T04:47:20;1.70;1.00
8557;DHT22;4316;53.840;10.762;2024-02-26T04:49:49;1.70;1.00
8557;DHT22;4316;53.840;10.762;2024-02-26T04:52:15;1.60;1.00
8557;DHT22;4316;53.840;10.762;2024-02-26T04:54:41;1.70;1.00
8557;DHT22;4316;53.840;10.762;2024-02-26T04:57:06;1.60;1.00
8557;DHT22;4316;53.840;10.762;2024-02-26T04:59:32;1.60;1.00
8557;DHT22;4316;53.840;10.762;2024-02-26T05:01:58;1.60;1.00
8557;DHT22;4316;53.840;10.762;2024-02-26T05:04:24;1.60;1.00
8557;DHT22;4316;53.840;10.762;2024-02-26T05:06:49;1.70;1.00
8557;DHT22;4316;53.840;10.762;2024-02-26T05:09:15;1.60;1.00
8557;DHT22;4316;53.840;10.762;2024-02-26T05:11:41;1.50;1.00
8557;DHT22;4316;53.840;10.762;2024-02-26T05:14:06;1.40;1.00
8557;DHT22;4316;53.840;10.762;2024-02-26T05:16:32;1.50;1.00
8557;DHT22;4316;53.840;10.762;2024-02-26T05:18:58;1.50;1.00
8557;DHT22;4316;53.840;10.762;2024-02-26T05:21:26;1.60;1.00
8557;DHT22;4316;53.840;10.762;2024-02-26T05:23:52;1.50;1.00
8557;DHT22;4316;53.840;10.762;2024-02-26T05:26:22;1.60;1.00
8557;DHT22;4316;53.840;10.762;2024-02-26T05:28:49;1.50;1.00
8557;DHT22;4316;53.840;10.762;2024-02-26T05:31:16;1.50;1.00
8557;DHT22;4316;53.840;10.762;2024-02-26T05:33:42;1.50;1.00
8557;DHT22;4316;53.840;10.762;2024-02-26T05:36:08;1.40;1.00
8557;DHT22;4316;53.840;10.762;2024-02-26T05:38:34;1.40;1.00
8557;DHT22;4316;53.840;10.762;2024-02-26T05:41:00;1.40;1.00
8557;DHT22;4316;53.840;10.762;2024-02-26T05:43:29;1.40;1.00
8557;DHT22;4316;53.840;10.762;2024-02-26T05:45:55;1.40;1.00
8557;DHT22;4316;53.840;10.762;2024-02-26T05:48:21;1.40;1.00
8557;DHT22;4316;53.840;10.762;2024-02-26T05:50:47;1.40;1.00
8557;DHT22;4316;53.840;10.762;2024-02-26T05:53:13;1.30;1.00
8557;DHT22;4316;53.840;10.762;2024-02-26T05:55:39;1.30;1.00
8557;DHT22;4316;53.840;10.762;2024-02-26T05:58:05;1.30;1.00
8557;DHT22;4316;53.840;10.762;2024-02-26T06:00:31;1.30;1.00
8557;DHT22;4316;53.840;10.762;2024-02-26T06:02:57;1.30;1.00
8557;DHT22;4316;53.840;10.762;2024-02-26T06:05:23;1.30;1.00
8557;DHT22;4316;53.840;10.762;2024-02-26T06:07:49;1.30;1.00
8557;DHT22;4316;53.840;10.762;2024-02-26T06:10:15;1.30;1.00
8557;DHT22;4316;53.840;10.762;2024-02-26T06:12:41;1.30;1.00
8557;DHT22;4316;53.840;10.762;2024-02-26T06:15:07;1.30;1.00
8557;DHT22;4316;53.840;10.762;2024-02-26T06:17:33;1.30;1.00
8557;DHT22;4316;53.840;10.762;2024-02-26T06:19:59;1.30;1.00
8557;DHT22;4316;53.840;10.762;2024-02-26T06:22:26;1.40;1.00
8557;DHT22;4316;53.840;10.762;2024-02-26T06:24:52;1.30;1.00
8557;DHT22;4316;53.840;10.762;2024-02-26T06:27:17;1.30;1.00
8557;DHT22;4316;53.840;10.762;2024-02-26T06:29:43;1.30;1.00
8557;DHT22;4316;53.840;10.762;2024-02-26T06:32:10;1.30;1.00
8557;DHT22;4316;53.840;10.762;2024-02-26T06:34:35;1.30;1.00
8557;DHT22;4316;53.840;10.762;2024-02-26T06:37:01;1.40;1.00
8557;DHT22;4316;53.840;10.762;2024-02-26T06:39:29;1.40;1.00
8557;DHT22;4316;53.840;10.762;2024-02-26T06:41:54;1.40;1.00
8557;DHT22;4316;53.840;10.762;2024-02-26T06:44:26;1.30;1.00
8557;DHT22;4316;53.840;10.762;2024-02-26T06:46:57;1.40;1.00
8557;DHT22;4316;53.840;10.762;2024-02-26T06:49:24;1.40;1.00
8557;DHT22;4316;53.840;10.762;2024-02-26T06:51:50;1.30;1.00
8557;DHT22;4316;53.840;10.762;2024-02-26T06:54:15;1.30;1.00
8557;DHT22;4316;53.840;10.762;2024-02-26T06:56:41;1.40;1.00
8557;DHT22;4316;53.840;10.762;2024-02-26T06:59:07;1.40;1.00
8557;DHT22;4316;53.840;10.762;2024-02-26T07:01:33;1.50;1.00
8557;DHT22;4316;53.840;10.762;2024-02-26T07:03:59;1.50;1.00
8557;DHT22;4316;53.840;10.762;2024-02-26T07:06:25;1.40;1.00
8557;DHT22;4316;53.840;10.762;2024-02-26T07:08:51;1.30;1.00
8557;DHT22;4316;53.840;10.762;2024-02-26T07:11:17;1.40;2.20
8557;DHT22;4316;53.840;10.762;2024-02-26T07:13:44;1.50;3.90
8557;DHT22;4316;53.840;10.762;2024-02-26T07:16:10;1.50;6.00
8557;DHT22;4316;53.840;10.762;2024-02-26T07:18:36;1.60;5.80
8557;DHT22;4316;53.840;10.762;2024-02-26T07:21:02;1.60;6.60
8557;DHT22;4316;53.840;10.762;2024-02-26T07:23:29;1.70;5.00
8557;DHT22;4316;53.840;10.762;2024-02-26T07:25:55;1.70;4.00
8557;DHT22;4316;53.840;10.762;2024-02-26T07:28:21;1.70;5.50
8557;DHT22;4316;53.840;10.762;2024-02-26T07:30:47;1.80;8.50
8557;DHT22;4316;53.840;10.762;2024-02-26T07:33:12;1.80;7.10
8557;DHT22;4316;53.840;10.762;2024-02-26T07:35:38;1.80;8.30
8557;DHT22;4316;53.840;10.762;2024-02-26T07:38:07;1.80;9.50
8557;DHT22;4316;53.840;10.762;2024-02-26T07:40:33;1.80;10.30
8557;DHT22;4316;53.840;10.762;2024-02-26T07:42:59;1.90;14.10
8557;DHT22;4316;53.840;10.762;2024-02-26T07:45:24;2.00;12.60
8557;DHT22;4316;53.840;10.762;2024-02-26T07:47:50;2.00;13.40
8557;DHT22;4316;53.840;10.762;2024-02-26T07:50:17;2.00;14.90
8557;DHT22;4316;53.840;10.762;2024-02-26T07:52:43;2.00;16.00
8557;DHT22;4316;53.840;10.762;2024-02-26T07:55:10;2.10;18.30
8557;DHT22;4316;53.840;10.762;2024-02-26T07:57:36;2.20;19.30
8557;DHT22;4316;53.840;10.762;2024-02-26T08:00:05;2.20;18.50
8557;DHT22;4316;53.840;10.762;2024-02-26T08:02:35;2.10;19.00
8557;DHT22;4316;53.840;10.762;2024-02-26T08:05:01;2.20;20.00
8557;DHT22;4316;53.840;10.762;2024-02-26T08:07:27;2.30;20.70
8557;DHT22;4316;53.840;10.762;2024-02-26T08:09:54;2.30;21.60
8557;DHT22;4316;53.840;10.762;2024-02-26T08:12:20;2.50;22.90
8557;DHT22;4316;53.840;10.762;2024-02-26T08:14:46;2.60;21.20
8557;DHT22;4316;53.840;10.762;2024-02-26T08:17:11;2.60;21.10
8557;DHT22;4316;53.840;10.762;2024-02-26T08:19:37;2.60;23.10
8557;DHT22;4316;53.840;10.762;2024-02-26T08:22:06;2.70;22.30
8557;DHT22;4316;53.840;10.762;2024-02-26T08:24:32;2.70;24.00
8557;DHT22;4316;53.840;10.762;2024-02-26T08:26:58;2.60;23.50
8557;DHT22;4316;53.840;10.762;2024-02-26T08:29:24;2.60;28.10
8557;DHT22;4316;53.840;10.762;2024-02-26T08:31:50;2.60;24.40
8557;DHT22;4316;53.840;10.762;2024-02-26T08:34:15;2.60;26.10
8557;DHT22;4316;53.840;10.762;2024-02-26T08:36:41;2.70;26.70
8557;DHT22;4316;53.840;10.762;2024-02-26T08:39:08;2.70;27.10
8557;DHT22;4316;53.840;10.762;2024-02-26T08:41:34;2.90;28.60
8557;DHT22;4316;53.840;10.762;2024-02-26T08:44:00;3.00;30.00
8557;DHT22;4316;53.840;10.762;2024-02-26T08:46:26;3.10;29.20
8557;DHT22;4316;53.840;10.762;2024-02-26T08:48:51;3.20;30.70
8557;DHT22;4316;53.840;10.762;2024-02-26T08:51:17;3.30;29.90
8557;DHT22;4316;53.840;10.762;2024-02-26T08:53:43;3.30;27.20
8557;DHT22;4316;53.840;10.762;2024-02-26T08:56:09;3.40;27.90
8557;DHT22;4316;53.840;10.762;2024-02-26T08:58:36;3.50;27.70
8557;DHT22;4316;53.840;10.762;2024-02-26T09:01:02;3.60;29.50
8557;DHT22;4316;53.840;10.762;2024-02-26T09:03:28;3.70;29.70
8557;DHT22;4316;53.840;10.762;2024-02-26T09:05:54;3.80;32.40
8557;DHT22;4316;53.840;10.762;2024-02-26T09:08:20;3.90;33.80
8557;DHT22;4316;53.840;10.762;2024-02-26T09:10:47;3.90;35.50
8557;DHT22;4316;53.840;10.762;2024-02-26T09:13:13;4.00;35.50
8557;DHT22;4316;53.840;10.762;2024-02-26T09:15:39;4.10;34.20
8557;DHT22;4316;53.840;10.762;2024-02-26T09:18:05;4.20;33.70
8557;DHT22;4316;53.840;10.762;2024-02-26T09:20:30;4.20;34.80
8557;DHT22;4316;53.840;10.762;2024-02-26T09:22:56;4.30;35.10
8557;DHT22;4316;53.840;10.762;2024-02-26T09:25:22;4.40;37.30
8557;DHT22;4316;53.840;10.762;2024-02-26T09:27:47;4.50;37.60
8557;DHT22;4316;53.840;10.762;2024-02-26T09:30:14;4.50;35.10
8557;DHT22;4316;53.840;10.762;2024-02-26T09:32:40;4.60;37.20
8557;DHT22;4316;53.840;10.762;2024-02-26T09:35:06;4.60;37.90
8557;DHT22;4316;53.840;10.762;2024-02-26T09:37:33;4.70;41.20
8557;DHT22;4316;53.840;10.762;2024-02-26T09:39:59;4.70;41.70
8557;DHT22;4316;53.840;10.762;2024-02-26T09:42:26;4.70;41.40
8557;DHT22;4316;53.840;10.762;2024-02-26T09:44:54;4.80;42.20
8557;DHT22;4316;53.840;10.762;2024-02-26T09:47:27;4.90;41.10
8557;DHT22;4316;53.840;10.762;2024-02-26T09:49:55;4.90;43.70
8557;DHT22;4316;53.840;10.762;2024-02-26T09:52:21;5.10;45.30
8557;DHT22;4316;53.840;10.762;2024-02-26T09:54:49;5.20;47.10
8557;DHT22;4316;53.840;10.762;2024-02-26T09:57:15;5.30;46.50
8557;DHT22;4316;53.840;10.762;2024-02-26T09:59:43;5.40;45.00
8557;DHT22;4316;53.840;10.762;2024-02-26T10:02:11;5.50;43.60
8557;DHT22;4316;53.840;10.762;2024-02-26T10:04:39;5.60;44.10
8557;DHT22;4316;53.840;10.762;2024-02-26T10:07:10;5.70;38.90
8557;DHT22;4316;53.840;10.762;2024-02-26T10:09:36;5.80;40.80
8557;DHT22;4316;53.840;10.762;2024-02-26T10:12:03;5.80;41.40
8557;DHT22;4316;53.840;10.762;2024-02-26T10:14:29;5.90;37.80
8557;DHT22;4316;53.840;10.762;2024-02-26T10:16:55;5.90;39.20
8557;DHT22;4316;53.840;10.762;2024-02-26T10:19:28;5.90;38.80
8557;DHT22;4316;53.840;10.762;2024-02-26T10:21:59;5.90;38.00
8557;DHT22;4316;53.840;10.762;2024-02-26T10:24:25;5.90;35.60
8557;DHT22;4316;53.840;10.762;2024-02-26T10:26:55;5.90;33.10
8557;DHT22;4316;53.840;10.762;2024-02-26T10:29:23;5.90;34.80
8557;DHT22;4316;53.840;10.762;2024-02-26T10:31:51;5.90;35.90
8557;DHT22;4316;53.840;10.762;2024-02-26T10:34:17;5.90;35.00
8557;DHT22;4316;53.840;10.762;2024-02-26T10:36:43;5.90;34.50
8557;DHT22;4316;53.840;10.762;2024-02-26T10:39:12;5.90;35.00
8557;DHT22;4316;53.840;10.762;2024-02-26T10:41:43;6.00;34.90
8557;DHT22;4316;53.840;10.762;2024-02-26T10:44:10;6.10;34.50
8557;DHT22;4316;53.840;10.762;2024-02-26T10:46:37;6.10;34.70
8557;DHT22;4316;53.840;10.762;2024-02-26T10:49:04;6.20;33.80
8557;DHT22;4316;53.840;10.762;2024-02-26T10:51:31;6.30;33.70
8557;DHT22;4316;53.840;10.762;2024-02-26T10:54:00;6.30;32.80
8557;DHT22;4316;53.840;10.762;2024-02-26T10:56:28;6.30;32.30
8557;DHT22;4316;53.840;10.762;2024-02-26T10:58:58;6.30;31.70
8557;DHT22;4316;53.840;10.762;2024-02-26T11:01:25;6.40;32.50
8557;DHT22;4316;53.840;10.762;2024-02-26T11:03:53;6.50;32.60
8557;DHT22;4316;53.840;10.762;2024-02-26T11:06:22;6.60;31.30
8557;DHT22;4316;53.840;10.762;2024-02-26T11:08:49;6.60;29.00
8557;DHT22;4316;53.840;10.762;2024-02-26T11:11:16;6.60;29.50
8557;DHT22;4316;53.840;10.762;2024-02-26T11:13:45;6.70;28.40
8557;DHT22;4316;53.840;10.762;2024-02-26T11:16:22;6.70;28.80
8557;DHT22;4316;53.840;10.762;2024-02-26T11:18:49;6.80;26.30
8557;DHT22;4316;53.840;10.762;2024-02-26T11:21:19;6.80;24.40
8557;DHT22;4316;53.840;10.762;2024-02-26T11:23:46;6.80;20.60
8557;DHT22;4316;53.840;10.762;2024-02-26T11:26:13;6.70;23.10
8557;DHT22;4316;53.840;10.762;2024-02-26T11:28:40;6.70;20.60
8557;DHT22;4316;53.840;10.762;2024-02-26T11:31:07;6.60;21.50
8557;DHT22;4316;53.840;10.762;2024-02-26T11:33:34;6.60;21.60
8557;DHT22;4316;53.840;10.762;2024-02-26T11:36:12;6.70;21.70
8557;DHT22;4316;53.840;10.762;2024-02-26T11:38:39;6.60;16.10
8557;DHT22;4316;53.840;10.762;2024-02-26T11:41:06;6.60;20.10
8557;DHT22;4316;53.840;10.762;2024-02-26T11:43:52;6.60;20.00
8557;DHT22;4316;53.840;10.762;2024-02-26T11:46:31;6.60;19.80
8557;DHT22;4316;53.840;10.762;2024-02-26T11:49:02;6.50;15.80
8557;DHT22;4316;53.840;10.762;2024-02-26T11:51:34;6.40;17.50
8557;DHT22;4316;53.840;10.762;2024-02-26T11:54:00;6.30;20.30
8557;DHT22;4316;53.840;10.762;2024-02-26T11:56:26;6.20;19.30
8557;DHT22;4316;53.840;10.762;2024-02-26T11:59:01;6.10;20.00
8557;DHT22;4316;53.840;10.762;2024-02-26T12:01:46;6.10;21.80
8557;DHT22;4316;53.840;10.762;2024-02-26T12:04:26;6.00;23.60
8557;DHT22;4316;53.840;10.762;2024-02-26T12:06:55;6.00;26.00
8557;DHT22;4316;53.840;10.762;2024-02-26T12:11:57;6.00;28.60
8557;DHT22;4316;53.840;10.762;2024-02-26T12:14:27;6.00;28.10
8557;DHT22;4316;53.840;10.762;2024-02-26T12:16:53;6.10;30.30
8557;DHT22;4316;53.840;10.762;2024-02-26T12:19:22;6.10;30.60
8557;DHT22;4316;53.840;10.762;2024-02-26T12:21:52;6.20;28.00
8557;DHT22;4316;53.840;10.762;2024-02-26T12:24:21;6.20;26.80
8557;DHT22;4316;53.840;10.762;2024-02-26T12:26:47;6.30;26.50
8557;DHT22;4316;53.840;10.762;2024-02-26T12:29:12;6.30;25.00
8557;DHT22;4316;53.840;10.762;2024-02-26T12:31:40;6.30;26.40
8557;DHT22;4316;53.840;10.762;2024-02-26T12:34:06;6.30;26.70
8557;DHT22;4316;53.840;10.762;2024-02-26T12:36:34;6.20;26.70
8557;DHT22;4316;53.840;10.762;2024-02-26T12:39:03;6.10;27.10
8557;DHT22;4316;53.840;10.762;2024-02-26T12:41:32;6.10;33.50
8557;DHT22;4316;53.840;10.762;2024-02-26T12:43:58;6.20;32.50
8557;DHT22;4316;53.840;10.762;2024-02-26T12:46:24;6.20;30.70
8557;DHT22;4316;53.840;10.762;2024-02-26T12:48:50;6.20;31.70
8557;DHT22;4316;53.840;10.762;2024-02-26T12:51:16;6.20;29.60
8557;DHT22;4316;53.840;10.762;2024-02-26T12:53:44;6.30;31.40
8557;DHT22;4316;53.840;10.762;2024-02-26T12:56:11;6.30;28.60
8557;DHT22;4316;53.840;10.762;2024-02-26T12:58:40;6.30;28.90
8557;DHT22;4316;53.840;10.762;2024-02-26T13:01:06;6.30;28.80
8557;DHT22;4316;53.840;10.762;2024-02-26T13:03:36;6.30;29.50
8557;DHT22;4316;53.840;10.762;2024-02-26T13:06:03;6.30;28.70
8557;DHT22;4316;53.840;10.762;2024-02-26T13:08:31;6.30;28.80
8557;DHT22;4316;53.840;10.762;2024-02-26T13:10:59;6.30;28.50
8557;DHT22;4316;53.840;10.762;2024-02-26T13:13:25;6.30;28.90
8557;DHT22;4316;53.840;10.762;2024-02-26T13:16:23;6.40;27.90
8557;DHT22;4316;53.840;10.762;2024-02-26T13:18:47;6.40;27.70
8557;DHT22;4316;53.840;10.762;2024-02-26T13:21:15;6.30;28.30
8557;DHT22;4316;53.840;10.762;2024-02-26T13:23:41;6.30;28.20
8557;DHT22;4316;53.840;10.762;2024-02-26T13:26:08;6.40;28.90
8557;DHT22;4316;53.840;10.762;2024-02-26T13:28:34;6.30;27.30
8557;DHT22;4316;53.840;10.762;2024-02-26T13:31:01;6.40;27.70
8557;DHT22;4316;53.840;10.762;2024-02-26T13:33:29;6.30;28.10
8557;DHT22;4316;53.840;10.762;2024-02-26T13:35:56;6.40;28.20
8557;DHT22;4316;53.840;10.762;2024-02-26T13:38:23;6.30;28.40
8557;DHT22;4316;53.840;10.762;2024-02-26T13:40:52;6.40;28.30
8557;DHT22;4316;53.840;10.762;2024-02-26T13:43:19;6.50;31.00
8557;DHT22;4316;53.840;10.762;2024-02-26T13:45:45;6.70;29.70
8557;DHT22;4316;53.840;10.762;2024-02-26T13:48:11;6.70;21.30
8557;DHT22;4316;53.840;10.762;2024-02-26T13:50:41;6.80;24.00
8557;DHT22;4316;53.840;10.762;2024-02-26T13:53:11;6.90;23.20
8557;DHT22;4316;53.840;10.762;2024-02-26T13:55:39;7.00;21.20
8557;DHT22;4316;53.840;10.762;2024-02-26T13:58:05;7.10;19.10
8557;DHT22;4316;53.840;10.762;2024-02-26T14:00:32;7.20;14.40
8557;DHT22;4316;53.840;10.762;2024-02-26T14:03:02;7.20;12.50
8557;DHT22;4316;53.840;10.762;2024-02-26T14:05:28;7.20;12.30
8557;DHT22;4316;53.840;10.762;2024-02-26T14:07:55;7.30;8.70
8557;DHT22;4316;53.840;10.762;2024-02-26T14:10:21;7.30;8.10
8557;DHT22;4316;53.840;10.762;2024-02-26T14:12:46;7.40;5.90
8557;DHT22;4316;53.840;10.762;2024-02-26T14:15:12;7.30;5.00
8557;DHT22;4316;53.840;10.762;2024-02-26T14:17:38;7.40;2.80
8557;DHT22;4316;53.840;10.762;2024-02-26T14:20:04;7.30;2.20
8557;DHT22;4316;53.840;10.762;2024-02-26T14:22:30;7.40;1.00
8557;DHT22;4316;53.840;10.762;2024-02-26T14:24:57;7.40;1.00
8557;DHT22;4316;53.840;10.762;2024-02-26T14:27:23;7.20;2.70
8557;DHT22;4316;53.840;10.762;2024-02-26T14:29:49;7.30;1.00
8557;DHT22;4316;53.840;10.762;2024-02-26T14:32:14;7.20;1.00
8557;DHT22;4316;53.840;10.762;2024-02-26T14:34:40;7.30;1.00
8557;DHT22;4316;53.840;10.762;2024-02-26T14:37:07;7.30;1.00
8557;DHT22;4316;53.840;10.762;2024-02-26T14:39:33;7.30;1.10
8557;DHT22;4316;53.840;10.762;2024-02-26T14:41:59;7.40;1.00
8557;DHT22;4316;53.840;10.762;2024-02-26T14:44:26;7.40;1.00
8557;DHT22;4316;53.840;10.762;2024-02-26T14:46:52;7.30;1.00
8557;DHT22;4316;53.840;10.762;2024-02-26T14:49:18;7.20;1.00
8557;DHT22;4316;53.840;10.762;2024-02-26T14:51:44;7.10;1.00
8557;DHT22;4316;53.840;10.762;2024-02-26T14:54:13;7.10;1.00
8557;DHT22;4316;53.840;10.762;2024-02-26T14:56:39;7.20;1.00
8557;DHT22;4316;53.840;10.762;2024-02-26T14:59:06;7.10;1.00
8557;DHT22;4316;53.840;10.762;2024-02-26T15:01:32;7.00;1.00
8557;DHT22;4316;53.840;10.762;2024-02-26T15:03:58;6.90;1.00
8557;DHT22;4316;53.840;10.762;2024-02-26T15:06:25;6.70;1.00
8557;DHT22;4316;53.840;10.762;2024-02-26T15:08:52;6.60;5.10
8557;DHT22;4316;53.840;10.762;2024-02-26T15:11:18;6.60;2.20
8557;DHT22;4316;53.840;10.762;2024-02-26T15:13:44;6.50;1.80
8557;DHT22;4316;53.840;10.762;2024-02-26T15:16:17;6.40;3.30
8557;DHT22;4316;53.840;10.762;2024-02-26T15:18:43;6.40;10.80
8557;DHT22;4316;53.840;10.762;2024-02-26T15:21:09;6.50;10.20
8557;DHT22;4316;53.840;10.762;2024-02-26T15:23:34;6.60;6.90
8557;DHT22;4316;53.840;10.762;2024-02-26T15:26:00;6.60;6.60
8557;DHT22;4316;53.840;10.762;2024-02-26T15:28:28;6.60;8.00
8557;DHT22;4316;53.840;10.762;2024-02-26T15:30:54;6.60;6.20
8557;DHT22;4316;53.840;10.762;2024-02-26T15:33:20;6.60;6.00
8557;DHT22;4316;53.840;10.762;2024-02-26T15:35:46;6.50;5.60
8557;DHT22;4316;53.840;10.762;2024-02-26T15:38:12;6.50;7.60
8557;DHT22;4316;53.840;10.762;2024-02-26T15:40:39;6.60;7.80
8557;DHT22;4316;53.840;10.762;2024-02-26T15:43:05;6.60;6.90
8557;DHT22;4316;53.840;10.762;2024-02-26T15:45:31;6.60;3.30
8557;DHT22;4316;53.840;10.762;2024-02-26T15:47:59;6.40;1.00
8557;DHT22;4316;53.840;10.762;2024-02-26T15:50:25;6.20;4.20
8557;DHT22;4316;53.840;10.762;2024-02-26T15:52:51;6.20;5.00
8557;DHT22;4316;53.840;10.762;2024-02-26T15:55:17;6.20;9.90
8557;DHT22;4316;53.840;10.762;2024-02-26T15:57:43;6.20;8.80
8557;DHT22;4316;53.840;10.762;2024-02-26T16:00:10;6.20;8.30
8557;DHT22;4316;53.840;10.762;2024-02-26T16:02:39;6.30;9.60
8557;DHT22;4316;53.840;10.762;2024-02-26T16:05:06;6.30;7.90
8557;DHT22;4316;53.840;10.762;2024-02-26T16:07:41;6.30;8.20
8557;DHT22;4316;53.840;10.762;2024-02-26T16:10:07;6.40;7.70
8557;DHT22;4316;53.840;10.762;2024-02-26T16:12:37;6.40;7.20